Latest Coastal Weather Observations for Larapuna (Eddystone Point)

IDT60701

Issued at 1:02 pm EDT Thursday 24 October 2019 (issued every 10 minutes, with the page automatically refreshed every 10 minutes)

About coastal observations | Map of coastal stations | Coastal observations for TAS | Marine services | Other Formats
Station Details ID: 092045 Name: LARAPUNA (EDDYSTONE POINT) Lat: -40.99 Lon: 148.35 Height: 19.7 m
Data from the previous 72 hours. | See also: Recent months at Larapuna (Eddystone Point)
Date/Time
EDT
Wind Sea
Height
m
Swell Vis
km
Cloud Weather Temp
°C
Press
hPa
Rain since
9am
mm
Dir  Spd
kts
Gust
kts
Height
m
Period
s
Dir
24/01:00pm N 13 16 - - - - - - - 18.2 1014.7 0.0
24/12:30pm N 14 17 - - - - - - - 16.8 1014.9 0.0
24/12:00pm N 11 14 - - - - - - - 15.8 1015.3 0.0
24/11:30am N 10 12 - - - - - - - 16.2 1015.6 0.0
24/11:00am N 13 17 - - - - - - - 16.0 1015.6 0.0
24/10:30am N 11 15 - - - - - - - 16.0 1015.9 0.0
24/10:00am N 9 13 - - - - - - - 15.8 1015.9 0.0
24/09:30am N 8 11 - - - - - - - 14.8 1016.2 0.0
24/09:00am N 8 10 - - - - - - - 15.2 1016.4 0.0
24/08:30am NNW 6 8 - - - - - - - 14.5 1016.7 0.0
24/08:00am NW 6 8 - - - - - - - 13.3 1016.8 0.0
24/07:30am WNW 4 6 - - - - - - - 12.7 1016.6 0.0
24/07:00am NW 4 5 - - - - - - - 12.3 1016.5 0.0
24/06:30am NW 4 5 - - - - - - - 12.1 1016.4 0.0
24/06:00am NNW 1 5 - - - - - - - 12.1 1016.2 0.0
24/05:30am CALM 0 0 - - - - - - - 12.3 1016.1 0.0
24/05:00am CALM 0 3 - - - - - - - 12.5 1016.3 0.0
24/04:30am ENE 4 4 - - - - - - - 12.5 1016.4 0.0
24/04:00am E 4 5 - - - - - - - 12.6 1016.7 0.0
24/03:30am SE 4 6 - - - - - - - 12.5 1017.3 0.0
24/03:00am SE 5 6 - - - - - - - 12.5 1017.8 0.0
24/02:30am SE 6 8 - - - - - - - 12.4 1018.0 0.0
24/02:00am ESE 7 8 - - - - - - - 12.4 1017.7 0.0
24/01:30am ESE 8 11 - - - - - - - 12.7 1018.0 0.0
24/01:00am SE 9 12 - - - - - - - 12.8 1018.3 0.0
24/12:30am SE 10 13 - - - - - - - 12.5 1018.6 0.0
24/12:00am SE 10 13 - - - - - - - 12.7 1018.8 0.0
 
Date/Time
EDT
Wind Sea
Height
m
Swell Vis
km
Cloud Weather Temp
°C
Press
hPa
Rain since
9am
mm
Dir  Spd
kts
Gust
kts
Height
m
Period
s
Dir
23/11:30pm SSE 12 15 - - - - - - - 12.6 1019.1 0.0
23/11:00pm SSE 12 15 - - - - - - - 12.7 1019.3 0.0
23/10:30pm SSE 12 14 - - - - - - - 12.4 1019.1 0.0
23/10:00pm S 11 13 - - - - - - - 12.5 1019.2 0.0
23/09:30pm S 13 14 - - - - - - - 12.6 1019.4 0.0
23/09:00pm S 14 16 - - - - - - - 12.8 1019.3 0.0
23/08:30pm S 16 18 - - - - - - - 12.9 1019.0 0.0
23/08:00pm S 19 22 - - - - - - - 13.2 1018.5 0.0
23/07:30pm S 19 22 - - - - - - - 13.5 1018.0 0.0
23/07:00pm S 19 22 - - - - - - - 14.0 1017.5 0.0
23/06:30pm SSW 19 22 - - - - - - - 14.9 1017.0 0.0
23/06:00pm SSW 14 16 - - - - - - - 16.4 1016.9 0.0
23/05:30pm SSW 8 11 - - - - - - - 16.2 1016.5 0.0
23/05:00pm W 7 10 - - - - - - - 19.6 1015.9 0.0
23/04:32pm NW 16 26 - - - - - - - 17.2 1015.8 0.0
23/04:30pm NW 17 26 - - - - - - - 17.1 1015.9 0.0
23/04:25pm NW 16 26 - - - - - - - 17.1 1016.0 0.0
23/04:24pm NW 15 24 - - - - - - - 17.2 1015.8 0.0
23/04:00pm NNW 9 12 - - - - - - - 17.9 1015.8 0.0
23/03:30pm NW 13 18 - - - - - - - 19.3 1016.1 0.0
23/03:00pm WNW 16 22 - - - - - - - 21.9 1016.0 0.0
23/02:30pm NW 16 21 - - - - - - - 19.8 1016.2 0.0
23/02:00pm NW 16 21 - - - - - - - 21.2 1016.4 0.0
23/01:30pm NW 21 25 - - - - - - - 20.6 1016.5 0.0
23/01:00pm NW 21 25 - - - - - - - 20.2 1016.6 0.0
23/12:30pm NW 18 25 - - - - - - - 20.1 1017.0 0.0
23/12:00pm NW 17 24 - - - - - - - 19.8 1017.3 0.0
23/11:30am NW 15 19 - - - - - - - 18.5 1017.9 0.0
23/11:09am WNW 15 25 - - - - - - - 18.2 1018.2 0.0
23/11:00am NW 15 21 - - - - - - - 17.8 1018.1 0.0
23/10:30am NW 17 23 - - - - - - - 16.5 1018.0 0.0
23/10:00am WNW 19 26 - - - - - - - 15.1 1018.0 0.0
23/09:30am WNW 11 21 - - - - - - - 14.8 1018.7 0.0
23/09:00am WNW 17 23 - - - - - - - 13.6 1018.5 0.0
23/08:30am WNW 18 23 - - - - - - - 12.4 1018.7 0.0
23/08:00am WNW 14 22 - - - - - - - 11.5 1019.2 0.0
23/07:30am NW 15 20 - - - - - - - 10.9 1019.0 0.0
23/07:00am NW 13 17 - - - - - - - 10.1 1019.0 0.0
23/06:30am NW 10 14 - - - - - - - 10.0 1019.2 0.0
23/06:00am WNW 11 15 - - - - - - - 9.7 1019.3 0.0
23/05:30am WNW 13 18 - - - - - - - 9.9 1019.1 0.0
23/05:00am WNW 9 12 - - - - - - - 10.0 1019.0 0.0
23/04:30am WNW 13 19 - - - - - - - 10.2 1019.1 0.0
23/04:00am WNW 12 16 - - - - - - - 10.3 1019.3 0.0
23/03:30am NW 13 18 - - - - - - - 10.4 1019.5 0.0
23/03:00am NW 14 19 - - - - - - - 10.4 1019.7 0.0
23/02:30am NW 15 21 - - - - - - - 10.5 1019.9 0.0
23/02:00am NW 14 20 - - - - - - - 10.4 1020.5 0.0
23/01:30am NW 15 20 - - - - - - - 10.5 1020.7 0.0
23/01:00am NW 15 19 - - - - - - - 10.5 1021.1 0.0
23/12:30am NW 17 22 - - - - - - - 10.2 1021.2 0.0
23/12:00am NW 17 20 - - - - - - - 10.0 1021.6 0.0
 
Date/Time
EDT
Wind Sea
Height
m
Swell Vis
km
Cloud Weather Temp
°C
Press
hPa
Rain since
9am
mm
Dir  Spd
kts
Gust
kts
Height
m
Period
s
Dir
22/11:30pm NW 16 21 - - - - - - - 10.1 1021.6 0.0
22/11:00pm NW 15 20 - - - - - - - 10.3 1021.8 0.0
22/10:30pm NNW 14 18 - - - - - - - 10.3 1022.0 0.0
22/10:00pm NW 12 15 - - - - - - - 10.1 1022.6 0.0
22/09:30pm NW 11 14 - - - - - - - 10.3 1022.7 0.0
22/09:00pm NW 11 15 - - - - - - - 10.6 1023.1 0.0
22/08:30pm NW 11 14 - - - - - - - 11.0 1022.7 0.0
22/08:00pm NW 13 16 - - - - - - - 11.7 1022.3 0.0
22/07:30pm NW 13 17 - - - - - - - 12.4 1022.3 0.0
22/07:00pm NNW 14 18 - - - - - - - 12.7 1022.4 0.0
22/06:30pm NNW 14 17 - - - - - - - 13.3 1022.4 0.0
22/06:00pm NNW 15 18 - - - - - - - 13.8 1022.5 0.0
22/05:30pm NNW 13 16 - - - - - - - 14.2 1022.7 0.0
22/05:00pm NNW 12 16 - - - - - - - 14.7 1022.8 0.0
22/04:30pm NNW 13 16 - - - - - - - 14.6 1022.7 0.0
22/04:00pm NNW 14 16 - - - - - - - 14.9 1023.1 0.0
22/03:30pm N 14 17 - - - - - - - 16.1 1023.3 0.0
22/03:00pm N 12 15 - - - - - - - 15.6 1023.8 0.0
22/02:30pm NNE 10 12 - - - - - - - 15.1 1024.2 0.0
22/02:00pm NNE 12 13 - - - - - - - 15.9 1024.4 0.0
22/01:30pm NE 9 11 - - - - - - - 17.3 1024.5 0.0
22/01:00pm ENE 7 8 - - - - - - - 17.0 1024.9 0.0
22/12:30pm E 6 8 - - - - - - - 16.9 1025.0 0.0
22/12:00pm ESE 8 10 - - - - - - - 16.4 1025.2 0.0
22/11:30am SSE 9 11 - - - - - - - 17.7 1025.7 0.0
22/11:00am SE 9 11 - - - - - - - 16.2 1025.7 0.0
22/10:30am SSE 10 12 - - - - - - - 15.6 1025.6 0.0
22/10:00am ESE 7 8 - - - - - - - 15.8 1025.6 0.0
22/09:30am ESE 8 10 - - - - - - - 15.0 1025.4 0.0
22/09:00am ESE 7 9 - - - - - - - 14.9 1025.2 0.0
22/08:30am ESE 6 8 - - - - - - - 14.5 1025.0 0.0
22/08:00am SE 7 8 - - - - - - - 13.6 1024.6 0.0
22/07:30am ESE 7 10 - - - - - - - 13.0 1024.3 0.0
22/07:00am ESE 7 8 - - - - - - - 12.8 1023.9 0.0
22/06:30am SE 7 10 - - - - - - - 12.5 1023.7 0.0
22/06:00am SE 7 9 - - - - - - - 12.4 1023.5 0.0
22/05:30am SSE 7 9 - - - - - - - 12.5 1023.1 0.0
22/05:00am SSE 9 10 - - - - - - - 12.5 1022.7 0.0
22/04:30am SSE 8 11 - - - - - - - 12.5 1022.6 0.0
22/04:00am SSE 10 13 - - - - - - - 12.6 1022.7 0.0
22/03:30am SSE 11 12 - - - - - - - 12.3 1022.7 0.0
22/03:00am SSE 11 14 - - - - - - - 12.3 1022.6 0.0
22/02:30am SSE 11 13 - - - - - - - 12.6 1022.4 0.0
22/02:00am SSE 11 13 - - - - - - - 12.6 1022.6 0.0
22/01:30am S 12 14 - - - - - - - 12.5 1022.6 0.0
22/01:00am S 12 14 - - - - - - - 12.6 1022.7 0.0
22/12:30am S 13 15 - - - - - - - 12.5 1022.7 0.0
22/12:00am S 11 13 - - - - - - - 12.3 1022.6 0.0
 
Date/Time
EDT
Wind Sea
Height
m
Swell Vis
km
Cloud Weather Temp
°C
Press
hPa
Rain since
9am
mm
Dir  Spd
kts
Gust
kts
Height
m
Period
s
Dir
21/11:30pm S 13 15 - - - - - - - 13.2 1022.7 0.0
21/11:00pm S 13 16 - - - - - - - 13.1 1022.8 0.0
21/10:30pm S 13 15 - - - - - - - 13.0 1022.7 0.0
21/10:00pm SSW 14 17 - - - - - - - 12.9 1022.8 0.0
21/09:30pm SSW 12 15 - - - - - - - 12.9 1022.6 0.0
21/09:00pm WSW 6 8 - - - - - - - 12.1 1022.6 0.0
21/08:30pm WSW 6 8 - - - - - - - 12.5 1022.1 0.0
21/08:00pm W 6 10 - - - - - - - 13.3 1021.6 0.0
21/07:30pm WSW 3 8 - - - - - - - 14.2 1021.2 0.0
21/07:00pm SW 7 14 - - - - - - - 15.5 1021.0 0.0
21/06:30pm WNW 13 19 - - - - - - - 16.5 1020.6 0.0
21/06:00pm NW 14 20 - - - - - - - 17.0 1020.3 0.0
21/05:30pm WNW 15 22 - - - - - - - 17.5 1020.4 0.0
21/05:00pm WNW 14 20 - - - - - - - 17.9 1020.3 0.0
21/04:30pm NW 16 21 - - - - - - - 18.6 1020.4 0.0
21/04:00pm WNW 18 23 - - - - - - - 18.9 1020.6 0.0
21/03:30pm NW 14 20 - - - - - - - 19.9 1020.6 0.0
21/03:00pm NW 14 18 - - - - - - - 19.8 1021.1 0.0
21/02:30pm WNW 11 18 - - - - - - - 20.4 1021.2 0.0
21/02:00pm S 5 7 - - - - - - - 17.9 1021.3 0.0
21/01:30pm SE 5 8 - - - - - - - 18.9 1021.4 0.0

Other formats

Comma delimited format used in spreadsheet applications
http://www.bom.gov.au/fwo/IDT60701/IDT60701.94983.axf

JavaScript Object Notation format (JSON) in row-major order
http://www.bom.gov.au/fwo/IDT60701/IDT60701.94983.json

Data quality

Most of these data are generated automatically and are frequently updated. Quality checks on data are not normally performed. It is possible for incorrect values to appear. Refer to information at About Latest Weather Observations and please check the disclaimer before using these data.